Time;durP1;ratioP1;P1;durP2;ratioP2;P2;SDS_P1;SDS_P2;PMS_P1;PMS_P2;Temp;Humidity;BMP_temperature;BMP_pressure;BME280_temperature;BME280_humidity;BME280_pressure;Samples;Min_cycle;Max_cycle;Signal;HPM_P1;HPM_P2
2021/06/06 00:00:37;;;;;;;4.55;1.88;;;;;;;18.13;55.27;100579.44;5077321;28;20028;-64
2021/06/06 00:03:06;;;;;;;2.90;1.60;;;;;;;17.93;55.31;100547.78;5068057;28;20085;-65
2021/06/06 00:05:42;;;;;;;3.42;1.80;;;;;;;17.97;55.66;100548.75;5077394;28;20047;-65
2021/06/06 00:08:08;;;;;;;4.55;1.73;;;;;;;18.12;55.80;100571.47;5072761;28;20528;-64
2021/06/06 00:10:33;;;;;;;5.18;1.63;;;;;;;18.13;55.68;100562.06;5065157;28;20378;-64
2021/06/06 00:12:59;;;;;;;3.28;1.75;;;;;;;18.14;55.84;100564.50;5062112;28;20025;-65
2021/06/06 00:15:24;;;;;;;3.75;2.03;;;;;;;18.16;55.67;100555.91;5075387;28;20029;-64
2021/06/06 00:17:50;;;;;;;2.67;2.20;;;;;;;18.07;55.61;100550.38;5073855;28;20035;-64
2021/06/06 00:20:15;;;;;;;3.70;2.10;;;;;;;18.08;55.85;100555.59;5079388;28;20492;-65
2021/06/06 00:22:41;;;;;;;7.15;2.00;;;;;;;17.65;55.79;100506.72;5085115;28;20448;-64
2021/06/06 00:25:09;;;;;;;4.15;1.90;;;;;;;17.97;55.88;100559.81;5078077;28;20029;-64
2021/06/06 00:27:35;;;;;;;3.85;2.10;;;;;;;17.93;55.83;100559.59;5067605;28;20043;-64
2021/06/06 00:30:00;;;;;;;2.35;1.90;;;;;;;17.87;56.14;100543.53;5067240;28;20028;-64
2021/06/06 00:32:26;;;;;;;5.30;2.00;;;;;;;17.55;56.14;100487.72;5080419;28;20495;-64
2021/06/06 00:34:52;;;;;;;3.28;2.30;;;;;;;17.90;55.92;100551.19;5071007;28;20410;-65
2021/06/06 00:37:17;;;;;;;5.28;2.10;;;;;;;17.87;56.26;100538.84;5073486;28;20589;-63
2021/06/06 00:39:43;;;;;;;3.13;1.92;;;;;;;17.87;56.59;100536.09;5076937;28;20027;-64
2021/06/06 00:42:08;;;;;;;3.95;1.92;;;;;;;17.84;56.25;100533.97;5072318;28;20037;-64
2021/06/06 00:44:34;;;;;;;3.10;2.05;;;;;;;17.83;56.50;100532.34;5072245;28;20382;-64
2021/06/06 00:47:01;;;;;;;4.28;1.80;;;;;;;17.82;56.56;100532.69;5086441;28;20404;-64
2021/06/06 00:49:26;;;;;;;4.95;2.10;;;;;;;17.80;56.40;100529.44;5074411;28;20123;-64
2021/06/06 00:51:55;;;;;;;4.00;2.40;;;;;;;17.76;56.53;100527.34;5075560;28;20025;-65
2021/06/06 00:54:27;;;;;;;3.58;2.17;;;;;;;17.71;56.65;100523.91;5077538;28;20020;-64
2021/06/06 00:56:59;;;;;;;6.13;2.40;;;;;;;17.67;57.19;100533.97;5077474;28;20406;-64
2021/06/06 00:59:27;;;;;;;5.55;2.47;;;;;;;17.59;57.39;100530.06;5068032;28;20064;-64
2021/06/06 01:01:53;;;;;;;4.28;2.78;;;;;;;17.54;57.69;100527.47;5063442;28;20063;-64
2021/06/06 01:04:21;;;;;;;4.63;2.60;;;;;;;17.49;57.90;100522.13;5077141;28;20017;-64
2021/06/06 01:06:49;;;;;;;4.03;2.25;;;;;;;17.27;57.89;100504.56;5077192;28;20378;-67
2021/06/06 01:09:17;;;;;;;5.90;2.22;;;;;;;17.42;58.05;100534.44;5065648;28;20033;-64
2021/06/06 01:11:43;;;;;;;5.00;2.58;;;;;;;17.40;57.98;100528.41;5069638;28;20033;-64
2021/06/06 01:14:16;;;;;;;3.80;2.40;;;;;;;17.39;58.01;100532.31;5067878;28;20564;-64
2021/06/06 01:17:15;;;;;;;2.63;1.83;;;;;;;17.41;57.82;100526.47;5074036;28;20115;-64
2021/06/06 01:19:57;;;;;;;3.75;2.60;;;;;;;17.33;57.82;100530.03;5075358;28;20107;-64
2021/06/06 01:22:51;;;;;;;3.55;2.03;;;;;;;17.30;57.72;100525.97;5082487;28;20040;-64
2021/06/06 01:25:19;;;;;;;3.90;2.10;;;;;;;17.24;57.82;100524.50;5067510;28;20040;-64
2021/06/06 01:27:53;;;;;;;3.50;2.00;;;;;;;17.21;57.91;100519.63;5068094;28;20071;-64
2021/06/06 01:30:25;;;;;;;6.88;2.72;;;;;;;16.95;57.91;100477.09;5074593;28;20021;-64
2021/06/06 01:33:10;;;;;;;2.47;2.03;;;;;;;17.17;57.88;100516.69;5061123;28;20051;-64
2021/06/06 01:35:49;;;;;;;5.22;2.05;;;;;;;17.12;58.03;100514.91;5061133;28;20405;-64
2021/06/06 01:38:20;;;;;;;3.75;1.90;;;;;;;17.10;58.05;100513.59;5073842;28;20086;-64
2021/06/06 01:40:51;;;;;;;3.63;1.98;;;;;;;17.01;58.07;100505.31;5067678;28;20030;-65
2021/06/06 01:43:23;;;;;;;4.00;2.20;;;;;;;17.01;58.24;100510.84;5071581;28;20067;-66
2021/06/06 01:45:55;;;;;;;4.15;2.22;;;;;;;17.05;58.57;100528.31;5073191;28;20390;-64
2021/06/06 01:48:20;;;;;;;4.32;2.05;;;;;;;17.03;58.52;100524.28;5068597;28;20025;-64
2021/06/06 01:50:56;;;;;;;4.05;2.05;;;;;;;17.05;58.54;100527.53;5076142;28;20036;-65
2021/06/06 01:53:23;;;;;;;3.90;2.17;;;;;;;17.05;58.56;100528.31;5076572;28;20122;-64
2021/06/06 01:55:53;;;;;;;3.60;2.05;;;;;;;16.98;58.71;100508.72;5074005;28;20132;-64
2021/06/06 01:58:21;;;;;;;5.50;2.60;;;;;;;17.07;58.92;100519.75;5067068;28;20024;-64
2021/06/06 02:00:55;;;;;;;4.60;2.22;;;;;;;17.08;58.50;100510.34;5068724;28;20028;-65
2021/06/06 02:03:21;;;;;;;3.45;2.20;;;;;;;17.05;58.90;100516.50;5058466;28;20032;-65
2021/06/06 02:05:48;;;;;;;5.25;1.95;;;;;;;17.03;58.72;100522.31;5073534;28;20036;-66
2021/06/06 02:08:17;;;;;;;6.63;2.13;;;;;;;17.02;58.96;100515.22;5069617;28;20051;-64
2021/06/06 02:10:50;;;;;;;3.85;2.10;;;;;;;17.00;58.69;100517.47;5064751;28;20422;-64
2021/06/06 02:13:25;;;;;;;9.85;2.30;;;;;;;16.95;59.03;100512.91;5062530;28;20453;-66
2021/06/06 02:15:55;;;;;;;3.03;2.00;;;;;;;16.82;59.00;100491.75;5074173;28;20090;-64
2021/06/06 02:18:23;;;;;;;2.72;1.90;;;;;;;16.79;58.88;100498.72;5073837;28;20033;-64
2021/06/06 02:20:50;;;;;;;3.33;1.90;;;;;;;16.82;59.27;100513.78;5087397;28;20503;-64
2021/06/06 02:23:25;;;;;;;4.18;2.00;;;;;;;16.70;59.13;100495.13;5077708;28;20028;-64
2021/06/06 02:26:21;;;;;;;2.50;1.90;;;;;;;16.70;59.26;100491.56;5068204;28;20036;-64
2021/06/06 02:29:11;;;;;;;4.72;1.70;;;;;;;16.78;59.05;100512.81;5067665;28;20455;-65
2021/06/06 02:31:55;;;;;;;5.05;1.80;;;;;;;16.72;59.25;100509.38;5065297;28;20044;-64
2021/06/06 02:34:31;;;;;;;3.53;1.80;;;;;;;16.55;59.28;100484.53;5067024;28;20071;-63
2021/06/06 02:37:08;;;;;;;4.38;2.10;;;;;;;16.55;59.25;100499.13;5068635;28;20043;-64
2021/06/06 02:39:38;;;;;;;2.50;1.92;;;;;;;16.61;59.25;100510.81;5073821;28;20027;-64
2021/06/06 02:42:11;;;;;;;3.58;1.83;;;;;;;16.57;59.50;100507.06;5071097;28;20028;-65
2021/06/06 02:44:45;;;;;;;3.47;1.98;;;;;;;16.54;59.50;100511.25;5070672;28;20123;-64
2021/06/06 02:47:12;;;;;;;6.20;2.30;;;;;;;16.48;59.72;100504.28;5079787;28;20368;-63
2021/06/06 02:49:43;;;;;;;5.38;2.33;;;;;;;16.44;59.79;100492.25;5071869;28;20025;-64
2021/06/06 02:52:17;;;;;;;4.32;2.20;;;;;;;16.39;59.86;100489.66;5074193;28;20031;-63
2021/06/06 02:54:46;;;;;;;5.50;2.08;;;;;;;16.49;59.78;100508.63;5074873;28;20024;-64
2021/06/06 02:57:15;;;;;;;3.20;2.10;;;;;;;16.46;59.84;100510.06;5064764;28;20021;-64
2021/06/06 02:59:47;;;;;;;5.03;2.30;;;;;;;16.46;60.19;100512.81;5074808;28;20028;-64
2021/06/06 03:02:17;;;;;;;3.20;2.25;;;;;;;16.43;60.13;100513.47;5070391;28;20028;-64
2021/06/06 03:04:56;;;;;;;4.63;2.35;;;;;;;16.39;60.31;100504.22;5066178;28;20033;-64
2021/06/06 03:07:32;;;;;;;2.40;1.98;;;;;;;16.34;60.41;100510.66;5074352;28;20029;-65
2021/06/06 03:09:58;;;;;;;3.88;1.90;;;;;;;16.29;60.73;100510.78;5063880;28;20029;-64
2021/06/06 03:12:26;;;;;;;4.07;2.35;;;;;;;16.27;60.82;100510.28;5062228;28;20033;-64
2021/06/06 03:14:52;;;;;;;8.07;2.60;;;;;;;16.25;60.67;100506.25;5067212;28;20397;-63
2021/06/06 03:17:24;;;;;;;4.50;2.00;;;;;;;16.17;60.95;100497.63;5070589;28;20033;-65
2021/06/06 03:19:53;;;;;;;4.53;2.15;;;;;;;16.01;61.09;100479.88;5083138;28;20031;-64
2021/06/06 03:22:23;;;;;;;3.80;2.00;;;;;;;16.20;60.98;100507.19;5084676;28;20031;-65
2021/06/06 03:24:54;;;;;;;4.97;2.50;;;;;;;16.22;60.95;100502.19;5078454;28;20576;-63
2021/06/06 03:27:23;;;;;;;3.88;2.15;;;;;;;16.15;61.54;100499.88;5073499;28;20478;-64
2021/06/06 03:30:03;;;;;;;4.25;2.28;;;;;;;16.18;61.34;100512.16;5076302;28;20262;-64
2021/06/06 03:32:33;;;;;;;3.95;2.35;;;;;;;16.15;61.47;100513.63;5077118;28;20024;-64
2021/06/06 03:34:59;;;;;;;3.42;2.28;;;;;;;16.15;61.29;100515.56;5078137;28;20174;-64
2021/06/06 03:37:25;;;;;;;3.95;2.28;;;;;;;16.13;61.26;100518.59;5078000;28;20066;-64
2021/06/06 03:39:53;;;;;;;10.02;3.15;;;;;;;16.11;61.43;100520.06;5074002;28;20024;-65
2021/06/06 03:42:19;;;;;;;4.10;2.50;;;;;;;16.07;61.59;100511.63;5072255;28;20028;-64
2021/06/06 03:44:45;;;;;;;4.28;2.00;;;;;;;15.47;61.66;100419.28;5079070;28;20084;-64
2021/06/06 03:47:11;;;;;;;3.85;2.47;;;;;;;16.00;61.67;100508.50;5083295;28;20059;-65
2021/06/06 03:49:36;;;;;;;5.72;2.40;;;;;;;15.84;61.90;100495.13;5078180;28;20075;-64
2021/06/06 03:52:04;;;;;;;2.85;2.22;;;;;;;15.88;61.98;100512.59;5076086;28;20028;-64
2021/06/06 03:54:29;;;;;;;4.43;2.33;;;;;;;15.84;62.08;100510.78;5070766;28;20032;-64
2021/06/06 03:56:55;;;;;;;3.30;2.22;;;;;;;15.70;62.24;100497.09;5073021;28;20024;-64
2021/06/06 03:59:21;;;;;;;3.50;2.55;;;;;;;15.75;62.44;100518.94;5078048;28;20021;-65
2021/06/06 04:01:47;;;;;;;3.92;2.25;;;;;;;15.54;62.69;100491.91;5075566;28;20035;-65
2021/06/06 04:04:14;;;;;;;4.07;2.50;;;;;;;15.67;62.56;100514.19;5076546;28;20021;-66
2021/06/06 04:06:39;;;;;;;4.28;2.72;;;;;;;15.66;62.83;100529.84;5077452;28;20044;-64
2021/06/06 04:09:06;;;;;;;4.20;2.58;;;;;;;15.65;62.84;100527.41;5074176;28;20025;-64
2021/06/06 04:11:32;;;;;;;5.03;3.78;;;;;;;15.64;62.83;100523.03;5069735;28;20070;-64
2021/06/06 04:13:57;;;;;;;6.65;3.80;;;;;;;15.63;62.93;100526.91;5069952;28;20032;-64
2021/06/06 04:16:23;;;;;;;5.72;4.00;;;;;;;15.63;62.79;100522.25;5070564;28;20037;-64
2021/06/06 04:18:48;;;;;;;7.15;4.13;;;;;;;15.60;62.75;100520.09;5080156;28;20032;-64
2021/06/06 04:21:17;;;;;;;8.48;4.07;;;;;;;15.64;62.86;100529.38;5080836;28;20021;-64
2021/06/06 04:23:43;;;;;;;4.65;4.13;;;;;;;15.66;62.74;100529.06;5077464;28;20020;-64
2021/06/06 04:26:08;;;;;;;6.55;4.28;;;;;;;15.65;62.90;100535.66;5077035;28;20036;-64
2021/06/06 04:28:34;;;;;;;6.88;4.47;;;;;;;15.65;62.83;100530.16;5073875;28;20040;-64
2021/06/06 04:31:01;;;;;;;9.48;4.78;;;;;;;15.65;62.92;100542.00;5075459;28;20029;-64
2021/06/06 04:33:26;;;;;;;5.63;4.18;;;;;;;15.62;62.85;100531.59;5077174;28;20107;-64
2021/06/06 04:35:52;;;;;;;8.30;3.70;;;;;;;15.58;63.13;100533.34;5076246;28;20056;-64
2021/06/06 04:38:22;;;;;;;5.63;3.47;;;;;;;15.59;63.26;100532.22;5074436;28;20036;-64
2021/06/06 04:40:48;;;;;;;7.97;3.28;;;;;;;15.53;63.08;100522.47;5071054;28;20033;-64
2021/06/06 04:43:14;;;;;;;5.53;2.70;;;;;;;15.50;63.33;100528.56;5067453;28;20067;-64
2021/06/06 04:45:40;;;;;;;5.97;2.50;;;;;;;15.48;63.55;100542.63;5075593;28;20024;-64
2021/06/06 04:48:37;;;;;;;4.10;2.47;;;;;;;15.41;63.80;100536.75;5073091;28;20070;-65
2021/06/06 04:51:10;;;;;;;6.63;2.50;;;;;;;15.33;63.93;100535.53;5074982;28;20043;-64
2021/06/06 04:53:36;;;;;;;4.43;2.78;;;;;;;15.32;64.25;100538.59;5077870;28;20029;-64
2021/06/06 04:56:02;;;;;;;5.18;2.40;;;;;;;15.32;64.12;100538.59;5076310;28;20042;-66
2021/06/06 04:58:29;;;;;;;5.38;2.75;;;;;;;15.33;64.43;100534.72;5076084;28;20508;-64
2021/06/06 05:00:55;;;;;;;3.03;2.63;;;;;;;15.34;64.44;100536.34;5075641;28;20489;-64
2021/06/06 05:03:21;;;;;;;9.13;2.90;;;;;;;15.34;64.50;100533.59;5066989;28;20672;-65
2021/06/06 05:05:47;;;;;;;7.30;2.50;;;;;;;15.32;64.55;100530.34;5076337;28;20115;-64
2021/06/06 05:08:14;;;;;;;7.45;2.90;;;;;;;15.17;64.47;100502.09;5075236;28;20060;-64
2021/06/06 05:10:42;;;;;;;3.47;2.60;;;;;;;15.35;64.49;100527.00;5074018;28;20025;-64
2021/06/06 05:13:09;;;;;;;7.10;2.72;;;;;;;15.34;64.38;100528.91;5071389;28;20032;-64
2021/06/06 05:15:35;;;;;;;5.18;2.40;;;;;;;15.36;64.61;100534.91;5065930;28;20062;-64
2021/06/06 05:18:01;;;;;;;6.47;2.63;;;;;;;15.38;64.70;100534.59;5073770;28;20071;-66
2021/06/06 05:20:32;;;;;;;6.50;2.92;;;;;;;15.42;64.56;100530.94;5085579;28;20039;-64
2021/06/06 05:22:58;;;;;;;4.43;2.75;;;;;;;15.30;64.41;100510.59;5081060;28;20036;-64
2021/06/06 05:25:24;;;;;;;4.97;2.40;;;;;;;15.49;64.37;100540.72;5076275;28;20034;-64
2021/06/06 05:27:49;;;;;;;7.10;2.70;;;;;;;15.09;64.49;100476.13;5071051;28;20397;-64
2021/06/06 05:30:26;;;;;;;4.97;2.80;;;;;;;15.32;64.72;100508.34;5065452;28;20034;-64
2021/06/06 05:32:52;;;;;;;4.40;2.65;;;;;;;15.48;64.51;100533.59;5078349;28;20416;-64
2021/06/06 05:35:20;;;;;;;8.35;2.55;;;;;;;15.36;64.60;100515.69;5075341;28;20052;-64
2021/06/06 05:37:45;;;;;;;7.82;2.75;;;;;;;15.47;64.90;100532.75;5072959;28;20128;-65
2021/06/06 05:40:12;;;;;;;7.70;2.65;;;;;;;15.38;64.83;100526.34;5075878;28;20024;-65
2021/06/06 05:42:37;;;;;;;4.78;2.50;;;;;;;15.42;64.91;100533.69;5065469;28;20083;-64
2021/06/06 05:45:03;;;;;;;4.75;2.70;;;;;;;15.40;64.92;100535.09;5071792;28;20036;-65
2021/06/06 05:47:29;;;;;;;4.45;2.60;;;;;;;15.31;65.09;100521.28;5075038;28;20024;-64
2021/06/06 05:49:54;;;;;;;5.13;2.60;;;;;;;15.37;64.94;100538.50;5073849;28;20024;-64
2021/06/06 05:52:20;;;;;;;5.00;2.50;;;;;;;15.35;65.18;100530.53;5075461;28;20025;-64
2021/06/06 05:54:45;;;;;;;6.55;3.00;;;;;;;15.36;65.13;100525.88;5075348;28;20016;-64
2021/06/06 05:57:11;;;;;;;4.32;2.80;;;;;;;15.37;64.89;100527.50;5062420;28;20020;-64
2021/06/06 05:59:36;;;;;;;4.20;2.80;;;;;;;15.37;65.21;100541.25;5065213;28;20482;-64
2021/06/06 06:02:01;;;;;;;6.85;3.22;;;;;;;15.37;64.98;100531.06;5062875;28;20017;-65
2021/06/06 06:04:27;;;;;;;6.40;2.67;;;;;;;15.35;65.24;100533.28;5074942;28;20029;-64
2021/06/06 06:06:52;;;;;;;6.43;3.20;;;;;;;15.27;65.43;100525.75;5069952;28;20020;-64
2021/06/06 06:09:18;;;;;;;7.22;3.08;;;;;;;15.36;65.34;100537.66;5069198;28;20060;-64
2021/06/06 06:11:43;;;;;;;5.90;2.70;;;;;;;15.40;65.28;100546.94;5066357;28;20098;-64
2021/06/06 06:14:09;;;;;;;3.50;2.78;;;;;;;15.40;65.35;100535.09;5063555;28;20020;-64
2021/06/06 06:16:37;;;;;;;4.63;2.65;;;;;;;15.43;65.46;100546.28;5063885;28;20075;-64
2021/06/06 06:19:05;;;;;;;5.05;2.50;;;;;;;15.42;65.54;100536.41;5077533;28;20028;-64
2021/06/06 06:21:32;;;;;;;3.25;2.67;;;;;;;15.50;65.24;100550.56;5070254;28;20032;-65
2021/06/06 06:23:58;;;;;;;6.60;2.70;;;;;;;15.51;65.48;100549.44;5066581;28;20060;-64
2021/06/06 06:26:25;;;;;;;4.50;2.50;;;;;;;15.53;65.35;100544.44;5065006;28;20024;-64
2021/06/06 06:28:51;;;;;;;6.10;2.83;;;;;;;15.48;65.41;100531.63;5073654;28;20021;-65
2021/06/06 06:31:17;;;;;;;5.95;2.78;;;;;;;15.60;65.42;100547.59;5068637;28;20052;-65
2021/06/06 06:33:44;;;;;;;5.07;2.50;;;;;;;15.61;65.50;100546.47;5076529;28;20408;-64
2021/06/06 06:36:11;;;;;;;4.78;2.40;;;;;;;15.67;65.25;100544.44;5071452;28;20111;-64
2021/06/06 06:38:37;;;;;;;2.95;2.22;;;;;;;15.69;65.43;100545.75;5075182;28;20027;-64
2021/06/06 06:41:03;;;;;;;5.70;2.50;;;;;;;15.74;65.28;100551.09;5068492;28;20032;-65
2021/06/06 06:43:28;;;;;;;6.75;2.40;;;;;;;15.80;65.05;100545.50;5068477;28;20100;-64
2021/06/06 06:45:54;;;;;;;5.50;2.67;;;;;;;15.85;65.20;100559.16;5069714;28;20115;-64
2021/06/06 06:48:23;;;;;;;8.48;3.28;;;;;;;15.91;65.12;100551.63;5075493;28;20029;-65
2021/06/06 06:50:50;;;;;;;6.75;2.22;;;;;;;15.94;65.15;100548.25;5068731;28;20039;-65
2021/06/06 06:53:16;;;;;;;4.80;2.33;;;;;;;15.98;65.29;100552.81;5065703;28;20493;-64
2021/06/06 06:55:42;;;;;;;3.63;2.30;;;;;;;16.04;65.24;100551.56;5065855;28;20035;-64
2021/06/06 06:58:08;;;;;;;5.30;2.25;;;;;;;16.12;65.17;100551.94;5070366;28;20032;-64
2021/06/06 07:00:45;;;;;;;3.45;2.15;;;;;;;16.05;65.05;100531.19;5072439;28;20032;-65
2021/06/06 07:03:14;;;;;;;4.22;2.40;;;;;;;16.23;65.01;100552.50;5067909;28;20074;-65
2021/06/06 07:05:40;;;;;;;5.25;1.92;;;;;;;16.32;64.85;100539.63;5066452;28;20469;-64
2021/06/06 07:08:08;;;;;;;3.95;2.25;;;;;;;16.40;64.90;100540.81;5068788;28;20369;-64
2021/06/06 07:10:36;;;;;;;3.53;1.95;;;;;;;16.49;64.65;100541.66;5063538;28;20736;-64
2021/06/06 07:13:01;;;;;;;4.05;2.00;;;;;;;16.56;64.67;100536.53;5064939;28;20500;-66
2021/06/06 07:15:27;;;;;;;6.32;2.05;;;;;;;16.62;64.32;100531.69;5068746;28;20508;-64
2021/06/06 07:17:53;;;;;;;10.85;2.00;;;;;;;16.71;63.59;100540.78;5073401;28;20031;-64
2021/06/06 07:20:24;;;;;;;4.18;1.90;;;;;;;16.81;63.63;100536.97;5081605;28;20029;-64
2021/06/06 07:22:50;;;;;;;2.40;1.60;;;;;;;16.86;63.18;100534.06;5072950;28;20436;-64
2021/06/06 07:25:16;;;;;;;3.30;1.85;;;;;;;16.97;63.03;100537.38;5066307;28;20431;-65
2021/06/06 07:27:44;;;;;;;3.35;1.50;;;;;;;17.05;62.71;100531.09;5072924;28;20024;-64
2021/06/06 07:30:14;;;;;;;10.77;2.00;;;;;;;17.09;62.34;100537.59;5074434;28;20028;-64
2021/06/06 07:32:40;;;;;;;3.05;1.73;;;;;;;17.21;61.68;100538.91;5066841;28;20028;-64
2021/06/06 07:35:06;;;;;;;2.63;1.40;;;;;;;17.12;61.54;100514.09;5058404;28;20055;-65
2021/06/06 07:37:33;;;;;;;2.25;1.63;;;;;;;17.30;61.15;100531.47;5069912;28;20420;-64
2021/06/06 07:39:59;;;;;;;3.25;1.88;;;;;;;17.29;60.68;100516.91;5059084;28;20038;-64
2021/06/06 07:42:24;;;;;;;2.88;1.55;;;;;;;17.46;60.50;100529.09;5070846;28;20021;-64
2021/06/06 07:44:50;;;;;;;3.50;1.65;;;;;;;17.53;60.42;100523.91;5072256;28;20287;-64
2021/06/06 07:47:15;;;;;;;5.07;1.52;;;;;;;17.49;60.25;100519.34;5071439;28;20029;-65
2021/06/06 07:49:41;;;;;;;3.15;1.60;;;;;;;17.52;60.26;100494.72;5071995;28;20021;-64
2021/06/06 07:52:08;;;;;;;3.45;1.25;;;;;;;17.77;60.03;100528.94;5072942;28;20076;-65
2021/06/06 07:54:34;;;;;;;4.30;1.55;;;;;;;17.85;59.75;100523.75;5067942;28;20088;-64
2021/06/06 07:57:01;;;;;;;6.13;1.65;;;;;;;17.93;59.54;100528.47;5066749;28;20028;-64
2021/06/06 07:59:27;;;;;;;5.60;1.58;;;;;;;17.99;59.17;100527.19;5067892;28;20032;-64
2021/06/06 08:01:52;;;;;;;2.95;1.30;;;;;;;18.02;58.86;100521.00;5071901;28;20039;-64
2021/06/06 08:04:18;;;;;;;3.13;1.80;;;;;;;17.93;58.81;100500.88;5076123;28;20145;-64
2021/06/06 08:06:43;;;;;;;2.88;1.42;;;;;;;18.03;58.46;100506.06;5062073;28;20090;-64
2021/06/06 08:09:09;;;;;;;4.75;1.75;;;;;;;18.20;58.48;100532.84;5066663;28;20083;-64
2021/06/06 08:11:36;;;;;;;2.78;1.50;;;;;;;18.27;58.49;100532.31;5073051;28;20032;-64
2021/06/06 08:14:02;;;;;;;3.63;1.55;;;;;;;18.34;58.21;100535.44;5074433;28;20028;-66
2021/06/06 08:16:27;;;;;;;4.45;1.60;;;;;;;18.34;57.99;100531.84;5078688;28;20035;-64
2021/06/06 08:18:53;;;;;;;3.03;1.40;;;;;;;18.45;58.17;100538.66;5079448;28;20054;-64
2021/06/06 08:21:41;;;;;;;2.05;1.30;;;;;;;18.55;57.84;100534.72;5078919;28;20070;-64
2021/06/06 08:24:08;;;;;;;1.83;1.23;;;;;;;18.56;57.66;100530.81;5078151;28;20082;-64
2021/06/06 08:26:34;;;;;;;4.85;2.22;;;;;;;18.61;57.76;100538.09;5077354;28;20074;-64
2021/06/06 08:29:01;;;;;;;2.08;1.50;;;;;;;18.60;57.46;100522.69;5082426;28;20028;-64
2021/06/06 08:31:30;;;;;;;5.60;1.65;;;;;;;18.69;57.53;100526.22;5085080;28;20028;-64
2021/06/06 08:33:56;;;;;;;7.05;1.80;;;;;;;18.71;57.38;100533.03;5090323;28;20548;-64
2021/06/06 08:36:26;;;;;;;3.38;1.70;;;;;;;18.75;57.56;100532.38;5077865;28;20056;-66
2021/06/06 08:38:52;;;;;;;4.13;1.40;;;;;;;18.77;57.26;100535.59;5077302;28;20024;-65
2021/06/06 08:41:44;;;;;;;3.83;1.60;;;;;;;18.83;57.09;100528.78;5072315;28;20028;-64
2021/06/06 08:44:17;;;;;;;6.95;1.70;;;;;;;18.79;57.35;100525.88;5067661;28;20024;-64
2021/06/06 08:47:07;;;;;;;6.45;1.50;;;;;;;18.88;56.38;100534.09;5072637;28;20277;-64
2021/06/06 08:49:40;;;;;;;3.42;1.45;;;;;;;18.88;56.08;100537.66;5072643;28;20039;-65
2021/06/06 08:52:35;;;;;;;3.03;1.40;;;;;;;18.91;56.22;100529.88;5075404;28;20035;-64
2021/06/06 08:55:06;;;;;;;3.80;1.30;;;;;;;18.95;56.30;100531.66;5073213;28;20040;-66
2021/06/06 08:57:43;;;;;;;2.50;1.60;;;;;;;19.03;55.87;100533.56;5072416;28;20073;-65
2021/06/06 09:00:34;;;;;;;2.13;1.27;;;;;;;19.10;55.18;100538.59;5077600;28;20032;-64
2021/06/06 09:03:04;;;;;;;5.93;1.48;;;;;;;19.09;55.55;100533.41;5069168;28;20029;-64
2021/06/06 09:05:35;;;;;;;2.38;1.20;;;;;;;19.19;55.17;100530.25;5076475;28;20035;-64
2021/06/06 09:08:02;;;;;;;2.70;1.40;;;;;;;19.21;55.36;100530.72;5077381;28;20078;-64
2021/06/06 09:10:35;;;;;;;1.80;1.25;;;;;;;19.31;55.42;100535.03;5071748;28;20396;-64
2021/06/06 09:13:06;;;;;;;2.55;1.00;;;;;;;19.41;55.13;100533.88;5068979;28;20056;-65
2021/06/06 09:15:32;;;;;;;1.77;1.00;;;;;;;19.49;54.50;100533.78;5068160;28;20032;-64
2021/06/06 09:18:00;;;;;;;2.25;1.20;;;;;;;19.62;54.22;100520.84;5066928;28;20028;-63
2021/06/06 09:20:37;;;;;;;3.20;1.40;;;;;;;19.75;54.37;100532.78;5061614;28;20100;-64
2021/06/06 09:23:27;;;;;;;3.92;1.20;;;;;;;19.88;53.56;100528.16;5068119;28;20029;-64
2021/06/06 09:26:09;;;;;;;2.97;1.38;;;;;;;20.00;53.47;100526.63;5069250;28;20612;-64
2021/06/06 09:28:41;;;;;;;2.00;1.20;;;;;;;20.10;52.98;100535.31;5073121;28;20503;-64
2021/06/06 09:31:17;;;;;;;3.30;1.10;;;;;;;20.19;52.29;100532.44;5072810;28;20031;-64
2021/06/06 09:33:45;;;;;;;1.95;1.15;;;;;;;20.17;51.05;100531.16;5084523;28;20052;-64
2021/06/06 09:36:30;;;;;;;2.00;1.05;;;;;;;20.20;50.48;100534.06;5075247;28;20032;-64
2021/06/06 09:39:05;;;;;;;2.30;1.02;;;;;;;20.24;50.62;100528.66;5074233;28;20059;-64
2021/06/06 09:41:40;;;;;;;2.58;0.93;;;;;;;20.32;50.79;100536.06;5070135;28;20039;-65
2021/06/06 09:44:12;;;;;;;1.00;0.90;;;;;;;20.40;49.49;100539.91;5061979;28;20473;-64
2021/06/06 09:47:10;;;;;;;2.10;1.27;;;;;;;20.48;49.50;100527.09;5077786;28;20029;-64
2021/06/06 09:49:48;;;;;;;2.53;1.17;;;;;;;20.66;49.45;100538.81;5069198;28;20074;-64
2021/06/06 09:52:52;;;;;;;1.23;0.93;;;;;;;20.72;47.25;100540.97;5073027;28;20081;-64
2021/06/06 09:55:20;;;;;;;1.30;0.88;;;;;;;20.72;47.61;100540.97;5058612;28;20040;-65
2021/06/06 09:57:46;;;;;;;2.35;1.02;;;;;;;20.84;47.74;100537.44;5075557;28;20036;-65
2021/06/06 10:00:22;;;;;;;2.00;1.02;;;;;;;20.98;47.41;100530.78;5074099;28;20063;-65
2021/06/06 10:03:06;;;;;;;2.15;1.10;;;;;;;21.14;47.39;100539.19;5075341;28;20032;-64
2021/06/06 10:05:35;;;;;;;1.67;1.00;;;;;;;21.18;47.99;100538.16;5073633;28;20051;-66
2021/06/06 10:08:08;;;;;;;2.35;1.92;;;;;;;21.16;47.44;100531.34;5070083;28;20527;-66
2021/06/06 10:10:38;;;;;;;2.25;1.40;;;;;;;21.14;47.23;100551.09;5064500;28;20024;-64
2021/06/06 10:13:08;;;;;;;1.30;1.08;;;;;;;21.16;46.97;100548.78;5065135;28;20063;-64
2021/06/06 10:15:55;;;;;;;2.17;1.05;;;;;;;21.23;47.08;100535.16;5074458;28;20024;-64
2021/06/06 10:18:24;;;;;;;2.45;1.00;;;;;;;21.37;47.38;100545.06;5073259;28;20059;-64
2021/06/06 10:21:12;;;;;;;1.83;1.15;;;;;;;21.51;45.71;100547.47;5086617;28;20027;-64
2021/06/06 10:23:45;;;;;;;2.92;1.77;;;;;;;21.52;46.56;100538.81;5074452;28;20699;-64
2021/06/06 10:26:20;;;;;;;1.65;0.82;;;;;;;21.56;46.25;100551.97;5073981;28;20060;-62
2021/06/06 10:28:56;;;;;;;3.03;1.23;;;;;;;21.54;46.26;100535.66;5074368;28;20111;-65
2021/06/06 10:31:31;;;;;;;;;;;;;;;21.44;45.07;100541.72;5074601;28;20036;-63
2021/06/06 10:34:01;;;;;;;1.20;1.08;;;;;;;21.44;45.95;100530.63;5079041;28;19980;-63
2021/06/06 10:36:29;;;;;;;1.60;1.00;;;;;;;21.54;45.92;100539.25;5073700;28;20040;-63
2021/06/06 10:38:55;;;;;;;3.25;1.20;;;;;;;21.48;46.16;100518.47;5070668;28;20412;-62
2021/06/06 10:41:32;;;;;;;3.42;1.58;;;;;;;21.63;46.43;100524.47;5074455;28;20039;-64
2021/06/06 10:43:58;;;;;;;4.97;1.30;;;;;;;21.71;46.41;100531.84;5074662;28;20043;-63
2021/06/06 10:46:41;;;;;;;2.63;1.17;;;;;;;21.82;45.76;100532.16;5082945;28;20032;-64
2021/06/06 10:49:24;;;;;;;3.05;1.13;;;;;;;21.82;45.55;100527.41;5072756;28;20032;-62
2021/06/06 10:52:05;;;;;;;1.52;1.10;;;;;;;21.90;45.70;100525.66;5070799;28;20056;-63
2021/06/06 10:54:49;;;;;;;2.40;1.00;;;;;;;21.93;45.29;100513.03;5061583;28;20033;-63
2021/06/06 10:57:36;;;;;;;2.85;1.20;;;;;;;21.94;45.39;100523.78;5073591;28;20029;-63
2021/06/06 11:00:02;;;;;;;2.13;1.00;;;;;;;21.85;45.19;100523.16;5074735;28;20028;-64
2021/06/06 11:02:52;;;;;;;3.28;0.93;;;;;;;21.94;44.65;100520.22;5072952;28;20025;-63
2021/06/06 11:05:33;;;;;;;1.45;1.08;;;;;;;21.89;44.13;100501.84;5072934;28;20047;-63
2021/06/06 11:07:58;;;;;;;1.70;0.93;;;;;;;22.02;44.50;100520.03;5074564;28;20028;-62
2021/06/06 11:10:35;;;;;;;1.52;1.00;;;;;;;22.11;44.97;100511.56;5061506;28;20020;-62
2021/06/06 11:13:34;;;;;;;2.88;1.90;;;;;;;22.12;43.77;100513.19;5057707;28;20032;-65
2021/06/06 11:16:05;;;;;;;1.25;1.00;;;;;;;22.17;44.45;100514.91;5066975;28;20044;-62
2021/06/06 11:18:43;;;;;;;1.63;0.90;;;;;;;22.25;43.43;100516.72;5074124;28;20521;-63
2021/06/06 11:21:09;;;;;;;1.45;1.10;;;;;;;22.24;44.00;100517.06;5064051;28;20337;-63
2021/06/06 11:23:44;;;;;;;1.25;1.00;;;;;;;22.29;44.14;100512.06;5073657;28;20042;-63
2021/06/06 11:26:23;;;;;;;;;;;;;;;22.19;43.91;100522.88;5074589;28;20484;-62
2021/06/06 11:29:03;;;;;;;1.83;1.30;;;;;;;22.08;44.33;100511.47;5071760;28;19927;-63
2021/06/06 11:31:35;;;;;;;1.63;1.17;;;;;;;22.05;45.05;100513.00;5061180;28;20060;-63
2021/06/06 11:34:03;;;;;;;1.45;1.15;;;;;;;22.15;44.97;100523.56;5085323;28;20108;-65
2021/06/06 11:36:41;;;;;;;3.13;1.42;;;;;;;22.23;45.04;100516.25;5074528;28;20451;-63
2021/06/06 11:39:17;;;;;;;1.60;1.30;;;;;;;22.35;44.60;100514.59;5066080;28;20025;-63
2021/06/06 11:41:45;;;;;;;3.17;1.50;;;;;;;22.25;44.55;100479.78;5072791;28;20400;-63